Time;durP1;ratioP1;P1;durP2;ratioP2;P2;SDS_P1;SDS_P2;PMS_P1;PMS_P2;Temp;Humidity;BMP_temperature;BMP_pressure;BME280_temperature;BME280_humidity;BME280_pressure;Samples;Min_cycle;Max_cycle;Signal;HPM_P1;HPM_P2
2021/10/21 00:01:41;;;;;;;5.73;5.17;;;14.80;99.90;;;;;;5093414;28;20459;-60
2021/10/21 00:04:10;;;;;;;6.27;5.07;;;14.80;99.90;;;;;;5093659;28;20440;-60
2021/10/21 00:06:37;;;;;;;5.70;5.13;;;14.80;99.90;;;;;;5094706;28;20451;-60
2021/10/21 00:09:04;;;;;;;5.73;4.97;;;14.80;99.90;;;;;;5093622;28;20455;-60
2021/10/21 00:11:33;;;;;;;5.00;4.50;;;14.80;99.90;;;;;;5093554;28;20444;-61
2021/10/21 00:14:00;;;;;;;5.73;4.80;;;14.80;99.90;;;;;;5114766;22;20498;-60
2021/10/21 00:16:27;;;;;;;8.03;5.10;;;14.80;99.90;;;;;;5093349;28;20442;-62
2021/10/21 00:18:55;;;;;;;6.37;5.20;;;14.90;99.90;;;;;;5093556;28;20504;-63
2021/10/21 00:21:24;;;;;;;7.00;5.37;;;14.90;99.90;;;;;;5093414;28;20439;-61
2021/10/21 00:23:51;;;;;;;5.07;4.50;;;14.90;99.90;;;;;;5093995;28;20455;-61
2021/10/21 00:26:18;;;;;;;8.37;5.17;;;14.80;99.90;;;;;;5097180;28;20817;-62
2021/10/21 00:28:46;;;;;;;7.00;5.03;;;14.80;99.90;;;;;;5097270;28;20447;-63
2021/10/21 00:31:14;;;;;;;6.47;4.97;;;14.80;99.90;;;;;;5097020;28;20442;-62
2021/10/21 00:33:41;;;;;;;5.13;4.63;;;14.80;99.90;;;;;;5097156;28;20490;-62
2021/10/21 00:36:08;;;;;;;4.93;4.43;;;14.80;99.90;;;;;;5097323;28;20448;-62
2021/10/21 00:38:36;;;;;;;5.67;5.10;;;14.80;99.90;;;;;;5097385;28;20455;-61
2021/10/21 00:41:03;;;;;;;5.30;4.90;;;14.90;99.90;;;;;;5097168;28;20448;-61
2021/10/21 00:43:36;;;;;;;5.87;5.37;;;14.90;99.90;;;;;;5096716;28;21015;-62
2021/10/21 00:46:05;;;;;;;6.33;5.37;;;14.90;99.90;;;;;;5097222;28;20489;-62
2021/10/21 00:48:32;;;;;;;6.20;5.20;;;14.90;99.90;;;;;;5096882;28;20940;-61
2021/10/21 00:50:59;;;;;;;5.30;4.80;;;14.90;99.90;;;;;;5097020;28;20453;-62
2021/10/21 00:53:27;;;;;;;5.20;4.70;;;14.90;99.90;;;;;;5096712;28;20974;-61
2021/10/21 00:55:56;;;;;;;6.00;5.10;;;14.90;99.90;;;;;;5096798;28;20931;-62
2021/10/21 00:58:23;;;;;;;5.97;5.00;;;15.00;99.90;;;;;;5096698;28;20443;-62
2021/10/21 01:00:50;;;;;;;6.33;4.43;;;15.00;99.90;;;;;;5096885;28;20448;-62
2021/10/21 01:03:17;;;;;;;6.33;4.57;;;15.00;99.90;;;;;;5096829;28;20820;-62
2021/10/21 01:05:45;;;;;;;4.60;4.20;;;15.00;99.90;;;;;;5096565;28;20962;-61
2021/10/21 01:08:13;;;;;;;5.50;5.00;;;15.00;99.90;;;;;;5096890;28;20899;-61
2021/10/21 01:10:40;;;;;;;5.00;4.07;;;15.00;99.90;;;;;;5097425;28;20445;-62
2021/10/21 01:13:09;;;;;;;4.63;4.23;;;15.00;99.90;;;;;;5096771;28;20482;-63
2021/10/21 01:15:36;;;;;;;6.37;4.83;;;15.00;99.90;;;;;;5096977;28;20447;-63
2021/10/21 01:18:03;;;;;;;5.53;5.03;;;15.00;99.90;;;;;;5096816;28;20803;-63
2021/10/21 01:20:32;;;;;;;4.90;4.27;;;15.00;99.90;;;;;;5096771;28;20459;-61
2021/10/21 01:22:59;;;;;;;5.40;4.40;;;15.00;99.90;;;;;;5096877;28;20818;-62
2021/10/21 01:25:26;;;;;;;4.37;3.97;;;15.10;99.90;;;;;;5098850;28;20449;-61
2021/10/21 01:27:54;;;;;;;4.70;3.77;;;15.10;99.90;;;;;;5098197;28;20819;-62
2021/10/21 01:30:24;;;;;;;4.57;4.00;;;15.10;99.90;;;;;;5096057;28;20447;-61
2021/10/21 01:32:53;;;;;;;6.83;3.50;;;15.20;99.90;;;;;;5095872;28;20474;-61
2021/10/21 01:35:21;;;;;;;5.27;4.33;;;15.20;99.90;;;;;;5095113;28;20475;-61
2021/10/21 01:37:50;;;;;;;4.47;3.77;;;15.20;99.90;;;;;;5096262;28;20452;-61
2021/10/21 01:40:19;;;;;;;4.67;3.40;;;15.20;99.90;;;;;;5096267;28;20449;-62
2021/10/21 01:42:47;;;;;;;4.20;3.80;;;15.20;99.90;;;;;;5096016;28;20467;-61
2021/10/21 01:45:19;;;;;;;5.60;4.23;;;15.20;99.90;;;;;;5096376;28;20443;-61
2021/10/21 01:47:47;;;;;;;4.07;3.40;;;15.20;99.90;;;;;;5096299;28;20447;-61
2021/10/21 01:50:15;;;;;;;4.50;4.10;;;15.10;99.90;;;;;;5096578;28;20934;-61
2021/10/21 01:52:42;;;;;;;6.60;3.77;;;15.10;99.90;;;;;;5096447;28;20463;-61
2021/10/21 01:55:12;;;;;;;4.13;3.73;;;15.10;99.90;;;;;;5096493;28;20472;-62
2021/10/21 01:57:40;;;;;;;3.40;3.10;;;15.10;99.90;;;;;;5104046;28;20445;-62
2021/10/21 02:00:08;;;;;;;5.00;3.97;;;15.10;99.90;;;;;;5104432;28;20443;-62
2021/10/21 02:02:36;;;;;;;5.33;3.40;;;15.10;99.90;;;;;;5104533;28;20472;-61
2021/10/21 02:05:03;;;;;;;5.03;3.90;;;15.20;99.90;;;;;;5107084;28;20441;-62
2021/10/21 02:07:30;;;;;;;4.80;4.20;;;15.20;99.90;;;;;;5101927;28;20470;-61
2021/10/21 02:09:57;;;;;;;5.17;4.77;;;15.30;99.90;;;;;;5104614;28;20447;-61
2021/10/21 02:12:25;;;;;;;5.00;3.83;;;15.30;99.90;;;;;;5103366;28;20475;-62
2021/10/21 02:14:53;;;;;;;4.53;3.93;;;15.30;99.90;;;;;;5102471;28;20477;-62
2021/10/21 02:17:22;;;;;;;7.83;3.57;;;15.40;99.90;;;;;;5096301;28;20444;-62
2021/10/21 02:19:49;;;;;;;4.20;3.80;;;15.40;99.90;;;;;;5096269;28;20940;-63
2021/10/21 02:22:17;;;;;;;4.37;3.80;;;15.40;99.90;;;;;;5095643;28;20443;-63
2021/10/21 02:24:44;;;;;;;5.87;3.67;;;15.40;99.90;;;;;;5095194;28;20954;-63
2021/10/21 02:27:11;;;;;;;4.03;3.50;;;15.30;99.90;;;;;;5095457;28;20446;-63
2021/10/21 02:29:39;;;;;;;4.50;4.07;;;15.20;99.90;;;;;;5095198;28;20444;-62
2021/10/21 02:32:07;;;;;;;4.10;3.73;;;15.10;99.90;;;;;;5094826;28;20924;-61
2021/10/21 02:34:34;;;;;;;5.17;4.43;;;15.10;99.90;;;;;;5094694;28;21006;-62
2021/10/21 02:37:01;;;;;;;4.63;3.97;;;15.00;99.90;;;;;;5094780;28;20442;-63
2021/10/21 02:39:28;;;;;;;5.33;4.33;;;14.90;99.90;;;;;;5094992;28;20442;-62
2021/10/21 02:41:55;;;;;;;4.43;4.03;;;14.80;99.90;;;;;;5095364;28;20500;-63
2021/10/21 02:44:22;;;;;;;5.20;4.73;;;14.70;99.90;;;;;;5095057;28;20455;-62
2021/10/21 02:46:51;;;;;;;6.00;4.47;;;14.60;99.90;;;;;;5094853;28;20492;-62
2021/10/21 02:49:18;;;;;;;5.00;4.60;;;14.60;99.90;;;;;;5094490;28;20450;-63
2021/10/21 02:51:45;;;;;;;5.90;5.23;;;14.50;99.90;;;;;;5094842;28;20446;-63
2021/10/21 02:54:13;;;;;;;5.93;4.77;;;14.50;99.90;;;;;;5094350;28;20478;-63
2021/10/21 02:56:40;;;;;;;5.50;5.00;;;14.50;99.90;;;;;;5094581;28;20453;-64
2021/10/21 02:59:07;;;;;;;8.90;4.40;;;14.50;99.90;;;;;;5094713;28;20449;-63
2021/10/21 03:01:34;;;;;;;5.70;4.37;;;14.50;99.90;;;;;;5094560;28;20446;-64
2021/10/21 03:04:03;;;;;;;4.37;3.97;;;14.50;99.90;;;;;;5094502;28;20488;-63
2021/10/21 03:06:30;;;;;;;6.23;4.67;;;14.50;99.90;;;;;;5094492;28;20453;-63
2021/10/21 03:08:57;;;;;;;5.10;4.60;;;14.50;99.90;;;;;;5094388;28;20445;-63
2021/10/21 03:11:24;;;;;;;3.90;3.60;;;14.50;99.90;;;;;;5094270;28;20450;-62
2021/10/21 03:13:51;;;;;;;4.10;3.70;;;14.50;99.90;;;;;;5094134;28;20489;-63
2021/10/21 03:16:18;;;;;;;6.60;3.67;;;14.40;99.90;;;;;;5094465;28;20442;-63
2021/10/21 03:18:45;;;;;;;5.07;3.83;;;14.40;99.90;;;;;;5093893;28;20923;-62
2021/10/21 03:21:14;;;;;;;3.80;3.40;;;14.40;99.90;;;;;;5094084;28;20453;-63
2021/10/21 03:23:41;;;;;;;3.40;3.10;;;14.40;99.90;;;;;;5093994;28;20501;-63
2021/10/21 03:26:08;;;;;;;2.90;2.70;;;14.40;99.90;;;;;;5094145;28;20837;-63
2021/10/21 03:28:35;;;;;;;2.90;2.70;;;14.40;99.90;;;;;;5094133;28;20829;-63
2021/10/21 03:31:02;;;;;;;3.30;3.10;;;14.40;99.90;;;;;;5093809;28;20538;-63
2021/10/21 03:33:29;;;;;;;3.80;3.17;;;14.40;99.90;;;;;;5093899;28;20467;-63
2021/10/21 03:35:57;;;;;;;2.63;2.33;;;14.40;99.90;;;;;;5093789;28;20486;-63
2021/10/21 03:38:25;;;;;;;2.90;2.53;;;14.40;99.90;;;;;;5093958;28;20549;-63
2021/10/21 03:40:54;;;;;;;2.10;1.87;;;14.40;99.90;;;;;;5093650;28;20443;-62
2021/10/21 03:43:23;;;;;;;2.20;2.00;;;14.40;99.90;;;;;;5093433;28;20989;-63
2021/10/21 03:45:50;;;;;;;1.90;1.80;;;14.50;99.90;;;;;;5093741;28;20444;-62
2021/10/21 03:48:17;;;;;;;3.93;2.00;;;14.50;99.90;;;;;;5093934;28;20514;-62
2021/10/21 03:50:45;;;;;;;1.40;1.30;;;14.50;99.90;;;;;;5093910;28;20453;-62
2021/10/21 03:53:12;;;;;;;2.33;1.63;;;14.50;99.90;;;;;;5093722;28;20870;-62
2021/10/21 03:55:42;;;;;;;1.50;1.30;;;14.50;99.90;;;;;;5093751;28;20477;-63
2021/10/21 03:58:09;;;;;;;1.60;1.50;;;14.50;99.90;;;;;;5093260;28;20839;-63
2021/10/21 04:00:36;;;;;;;1.50;1.40;;;14.50;99.90;;;;;;5093714;28;20447;-60
2021/10/21 04:03:04;;;;;;;4.23;1.60;;;14.50;99.90;;;;;;5093621;28;20469;-62
2021/10/21 04:08:47;;;;;;;4.17;1.73;;;14.40;99.90;;;;;;5091579;27;20943;-62
2021/10/21 04:11:14;;;;;;;2.20;1.80;;;14.40;99.90;;;;;;5091024;28;20446;-62
2021/10/21 04:13:41;;;;;;;1.27;1.17;;;14.50;99.90;;;;;;5090586;28;20999;-62
2021/10/21 04:16:08;;;;;;;2.43;1.60;;;14.40;99.90;;;;;;5090897;28;20450;-62
2021/10/21 04:18:35;;;;;;;1.47;1.13;;;14.50;99.90;;;;;;5091110;28;20460;-62
2021/10/21 04:21:02;;;;;;;1.57;1.40;;;14.50;99.90;;;;;;5091058;28;20443;-61
2021/10/21 04:23:30;;;;;;;1.20;1.10;;;14.40;99.90;;;;;;5090480;28;20473;-62
2021/10/21 04:25:58;;;;;;;1.77;1.20;;;14.40;99.90;;;;;;5090369;28;20506;-62
2021/10/21 04:28:25;;;;;;;2.93;1.00;;;14.30;99.90;;;;;;5090324;28;20472;-61
2021/10/21 04:30:52;;;;;;;1.40;0.90;;;14.30;99.90;;;;;;5090804;28;20496;-62
2021/10/21 04:33:20;;;;;;;1.20;0.93;;;14.20;99.90;;;;;;5090656;28;20535;-62
2021/10/21 04:35:47;;;;;;;1.83;0.80;;;14.10;99.90;;;;;;5090575;28;20557;-62
2021/10/21 04:38:14;;;;;;;1.33;1.00;;;14.10;99.00;;;;;;5090443;28;20435;-62
2021/10/21 04:40:41;;;;;;;2.90;1.00;;;14.10;96.80;;;;;;5090489;28;20447;-61
2021/10/21 04:43:09;;;;;;;3.20;1.10;;;14.00;96.00;;;;;;5090546;28;20470;-62
2021/10/21 04:45:37;;;;;;;2.90;0.70;;;14.00;95.10;;;;;;5090310;28;20942;-61
2021/10/21 04:48:04;;;;;;;3.47;0.70;;;14.00;93.30;;;;;;5090968;28;20477;-61
2021/10/21 04:50:31;;;;;;;4.03;1.00;;;13.90;92.60;;;;;;5090373;28;20949;-61
2021/10/21 04:52:58;;;;;;;1.80;0.60;;;13.90;92.70;;;;;;5090479;28;20836;-62
2021/10/21 04:55:26;;;;;;;2.13;1.27;;;13.90;92.60;;;;;;5090270;28;20923;-61
2021/10/21 04:57:53;;;;;;;2.60;0.90;;;13.80;92.60;;;;;;5091625;28;20450;-61
2021/10/21 05:00:22;;;;;;;3.13;0.87;;;13.80;92.60;;;;;;5091978;28;20451;-62
2021/10/21 05:02:49;;;;;;;3.00;1.40;;;13.50;93.40;;;;;;5090119;28;20834;-62
2021/10/21 05:05:16;;;;;;;3.67;1.10;;;;;;;;;;5090039;28;20456;-62
2021/10/21 05:07:43;;;;;;;2.33;1.33;;;;;;;;;;5089642;28;20881;-62
2021/10/21 05:10:11;;;;;;;4.67;1.07;;;;;;;;;;5090669;28;20456;-61
2021/10/21 05:12:38;;;;;;;1.80;1.00;;;;;;;;;;5089903;28;20477;-61
2021/10/21 05:15:06;;;;;;;1.43;0.90;;;;;;;;;;5090344;28;20442;-61
2021/10/21 05:17:35;;;;;;;3.03;0.83;;;;;;;;;;5089635;28;20444;-62
2021/10/21 05:20:02;;;;;;;1.90;0.77;;;;;;;;;;5076130;28;20458;-63
2021/10/21 05:22:29;;;;;;;3.83;0.93;;;;;;;;;;5076005;28;20469;-62
2021/10/21 05:24:57;;;;;;;2.17;1.10;;;;;;;;;;5075877;28;20974;-62
2021/10/21 05:27:24;;;;;;;8.03;1.13;;;;;;;;;;5076202;28;20479;-61
2021/10/21 05:29:51;;;;;;;2.00;0.80;;;13.20;94.70;;;;;;5082312;28;20452;-62
2021/10/21 05:32:18;;;;;;;4.93;1.50;;;12.70;98.60;;;;;;5079578;28;20407;-61
2021/10/21 05:34:46;;;;;;;3.70;1.00;;;12.80;98.70;;;;;;5075194;28;20511;-62
2021/10/21 05:37:14;;;;;;;2.70;1.00;;;12.90;98.40;;;;;;5074979;28;20416;-62
2021/10/21 05:39:41;;;;;;;3.63;1.20;;;13.00;98.00;;;;;;5074453;28;20408;-62
2021/10/21 05:42:08;;;;;;;2.33;1.00;;;13.00;97.70;;;;;;5073983;28;20414;-61
2021/10/21 05:44:35;;;;;;;3.42;1.00;;;13.00;98.00;;;;;;5074655;28;20465;-61
2021/10/21 05:47:02;;;;;;;4.32;1.30;;;13.00;97.80;;;;;;5074721;28;20407;-59
2021/10/21 05:49:29;;;;;;;3.00;1.15;;;13.00;97.60;;;;;;5074547;28;20407;-62
2021/10/21 05:51:58;;;;;;;3.50;1.00;;;13.00;97.50;;;;;;5074543;28;20412;-61
2021/10/21 05:54:25;;;;;;;4.38;1.30;;;13.00;97.60;;;;;;5074689;28;20489;-62
2021/10/21 05:56:53;;;;;;;3.22;1.00;;;13.00;97.70;;;;;;5074794;28;20438;-61
2021/10/21 05:59:20;;;;;;;4.05;1.20;;;12.90;97.80;;;;;;5074142;28;20418;-62
2021/10/21 06:01:47;;;;;;;1.90;0.88;;;12.90;97.90;;;;;;5074414;28;20411;-61
2021/10/21 06:04:14;;;;;;;3.70;1.00;;;12.80;97.70;;;;;;5074434;28;20412;-60
2021/10/21 06:06:41;;;;;;;3.20;0.95;;;12.80;97.30;;;;;;5074255;28;20420;-61
2021/10/21 06:09:10;;;;;;;2.88;1.42;;;12.90;97.10;;;;;;5074251;28;20514;-61
2021/10/21 06:11:38;;;;;;;3.35;0.90;;;12.90;96.90;;;;;;5073792;28;20918;-58
2021/10/21 06:14:05;;;;;;;3.17;1.17;;;12.90;97.20;;;;;;5074221;28;20486;-62
2021/10/21 06:16:33;;;;;;;2.75;1.10;;;12.90;96.70;;;;;;5074412;22;20435;-58
2021/10/21 06:19:00;;;;;;;4.15;1.30;;;13.00;96.50;;;;;;5033951;28;20477;-58
2021/10/21 06:21:28;;;;;;;2.30;0.90;;;13.00;96.80;;;;;;5033592;28;20447;-60
2021/10/21 06:23:55;;;;;;;4.30;0.98;;;13.10;96.50;;;;;;5033209;28;20441;-58
2021/10/21 06:26:24;;;;;;;3.00;0.97;;;13.10;96.30;;;;;;5033598;28;20423;-60
2021/10/21 06:28:52;;;;;;;2.28;0.80;;;13.10;96.00;;;;;;5033802;28;20450;-60
2021/10/21 06:31:21;;;;;;;3.17;1.10;;;13.10;95.90;;;;;;5032415;28;20419;-60
2021/10/21 06:33:48;;;;;;;2.63;1.10;;;13.20;95.80;;;;;;5033300;28;20899;-59
2021/10/21 06:36:16;;;;;;;4.90;0.82;;;13.20;95.90;;;;;;5033320;28;20776;-60
2021/10/21 06:38:43;;;;;;;4.10;1.00;;;13.20;95.60;;;;;;5033222;28;20406;-60
2021/10/21 06:41:11;;;;;;;2.60;1.10;;;13.20;95.50;;;;;;5033469;28;20867;-60
2021/10/21 06:43:39;;;;;;;3.57;1.10;;;13.20;96.50;;;;;;5033615;28;20427;-59
2021/10/21 06:46:07;;;;;;;4.00;0.90;;;13.00;98.20;;;;;;5033437;28;20839;-60
2021/10/21 06:48:34;;;;;;;3.10;0.80;;;12.80;99.30;;;;;;5032935;28;20437;-60
2021/10/21 06:51:02;;;;;;;2.25;1.02;;;12.60;99.90;;;;;;5032936;28;20783;-60
2021/10/21 06:53:29;;;;;;;2.00;0.80;;;12.50;99.90;;;;;;5033414;28;20550;-60
2021/10/21 06:55:56;;;;;;;3.70;0.70;;;12.50;99.90;;;;;;5033015;28;20434;-60
2021/10/21 06:58:23;;;;;;;1.63;0.80;;;12.40;99.90;;;;;;5032719;28;20883;-60
2021/10/21 07:00:51;;;;;;;1.80;0.90;;;12.50;99.90;;;;;;5033227;28;20421;-61
2021/10/21 07:03:19;;;;;;;1.48;0.82;;;12.60;99.90;;;;;;5032791;28;20426;-61
2021/10/21 07:05:48;;;;;;;2.63;0.93;;;12.70;99.90;;;;;;5032895;28;20879;-60
2021/10/21 07:08:15;;;;;;;1.75;0.60;;;12.80;99.90;;;;;;5032873;28;20510;-61
2021/10/21 07:10:42;;;;;;;3.38;0.70;;;12.90;99.90;;;;;;5032924;28;20418;-61
2021/10/21 07:13:09;;;;;;;1.98;0.80;;;13.00;99.70;;;;;;5032840;28;20415;-62
2021/10/21 07:15:37;;;;;;;2.17;0.77;;;13.00;99.00;;;;;;5032413;28;20910;-60
2021/10/21 07:18:05;;;;;;;3.70;0.90;;;13.10;98.70;;;;;;5032431;28;20462;-60
2021/10/21 07:20:32;;;;;;;1.77;0.93;;;13.10;98.60;;;;;;5033879;28;20214;-60
2021/10/21 07:23:00;;;;;;;2.70;0.80;;;13.00;98.70;;;;;;5033432;28;20954;-60
2021/10/21 07:25:28;;;;;;;3.30;1.00;;;13.00;98.80;;;;;;5032020;28;20414;-60
2021/10/21 07:27:56;;;;;;;1.30;0.80;;;12.90;99.40;;;;;;5033676;28;20642;-60
2021/10/21 07:30:23;;;;;;;2.70;0.87;;;12.80;99.90;;;;;;5033541;28;20452;-60
2021/10/21 07:32:51;;;;;;;2.27;0.90;;;12.70;99.90;;;;;;5033356;28;20451;-59
2021/10/21 07:35:19;;;;;;;1.80;0.90;;;12.70;99.90;;;;;;5033549;28;20471;-59
2021/10/21 07:37:46;;;;;;;3.47;0.80;;;12.60;99.90;;;;;;5033486;28;20501;-60
2021/10/21 07:40:14;;;;;;;2.27;0.80;;;12.60;99.90;;;;;;5033769;28;20470;-61
2021/10/21 07:42:41;;;;;;;2.70;1.33;;;;;;;;;;5033494;28;20452;-60
2021/10/21 07:45:09;;;;;;;1.90;0.80;;;;;;;;;;5033362;28;20548;-60
2021/10/21 07:47:37;;;;;;;2.97;0.73;;;;;;;;;;5033758;28;20821;-61
2021/10/21 07:50:04;;;;;;;0.67;0.60;;;;;;;;;;5033515;28;20444;-60
2021/10/21 07:52:33;;;;;;;1.37;0.70;;;;;;;;;;5033758;28;20950;-60
2021/10/21 07:55:01;;;;;;;1.97;0.90;;;;;;;;;;5034084;28;20456;-59
2021/10/21 07:57:28;;;;;;;2.00;1.00;;;12.40;99.90;;;;;;5033677;28;20477;-60
2021/10/21 07:59:55;;;;;;;2.70;0.70;;;11.80;99.90;;;;;;5033151;28;20939;-59
2021/10/21 08:02:22;;;;;;;2.13;0.90;;;11.80;99.90;;;;;;5033420;28;20446;-59
2021/10/21 08:04:49;;;;;;;3.57;0.60;;;11.70;99.90;;;;;;5033346;28;20520;-59
2021/10/21 08:07:16;;;;;;;2.50;0.90;;;11.70;99.90;;;;;;5031775;28;20418;-59
2021/10/21 08:09:44;;;;;;;1.50;1.03;;;11.70;99.90;;;;;;5033511;28;20262;-59
2021/10/21 08:12:12;;;;;;;4.60;1.17;;;;;;;;;;5034097;28;20449;-59
2021/10/21 08:14:39;;;;;;;3.33;1.03;;;;;;;;;;5034081;28;20838;-58
2021/10/21 08:17:07;;;;;;;1.50;0.80;;;;;;;;;;5032040;28;20427;-58
2021/10/21 08:19:34;;;;;;;1.40;0.70;;;;;;;;;;5032129;28;20435;-59
2021/10/21 08:22:02;;;;;;;2.17;0.75;;;;;;;;;;5032506;28;20779;-59
2021/10/21 08:24:30;;;;;;;3.20;0.80;;;;;;;;;;5031891;28;20968;-59
2021/10/21 08:26:58;;;;;;;2.20;0.97;;;;;;;;;;5033542;28;20229;-57
2021/10/21 08:29:26;;;;;;;3.90;1.00;;;;;;;;;;5032329;28;20427;-59
2021/10/21 08:31:55;;;;;;;7.25;0.95;;;;;;;;;;5033524;28;20575;-60
2021/10/21 08:34:23;;;;;;;1.60;0.70;;;;;;;;;;5033325;28;20198;-59
2021/10/21 08:36:50;;;;;;;2.38;0.88;;;;;;;;;;5033096;28;20333;-59
2021/10/21 08:39:17;;;;;;;0.70;0.60;;;;;;;;;;5032551;28;20209;-58
2021/10/21 08:41:46;;;;;;;1.33;0.63;;;;;;;;;;5033361;28;20206;-60
2021/10/21 08:44:15;;;;;;;2.80;0.90;;;;;;;;;;5033208;28;20202;-59
2021/10/21 08:46:45;;;;;;;1.00;0.50;;;;;;;;;;5032161;28;20418;-59
2021/10/21 08:49:13;;;;;;;1.50;0.52;;;;;;;;;;5032390;28;20425;-59
2021/10/21 08:51:40;;;;;;;1.25;0.70;;;;;;;;;;5031890;28;20760;-58
2021/10/21 08:54:08;;;;;;;1.60;0.63;;;;;;;;;;5033136;28;20426;-59
2021/10/21 08:56:35;;;;;;;1.10;0.60;;;;;;;;;;5035575;28;20426;-59
2021/10/21 08:59:03;;;;;;;1.23;0.60;;;;;;;;;;5035521;28;20415;-60
2021/10/21 09:01:37;;;;;;;1.23;0.80;;;;;;;;;;5035516;28;20422;-59
2021/10/21 09:04:29;;;;;;;2.05;0.70;;;;;;;;;;5035474;28;20486;-58
2021/10/21 09:09:45;;;;;;;1.48;0.60;;;;;;;;;;5035256;28;20599;-59
2021/10/21 09:12:13;;;;;;;1.60;0.70;;;;;;;;;;5035290;28;20455;-60
2021/10/21 09:14:42;;;;;;;1.10;0.60;;;;;;;;;;5035136;28;20415;-59
2021/10/21 09:17:11;;;;;;;3.00;0.70;;;;;;;;;;5034734;28;20422;-59
2021/10/21 09:19:39;;;;;;;1.20;0.70;;;;;;;;;;5035089;28;20423;-59
2021/10/21 09:22:07;;;;;;;1.92;0.65;;;;;;;;;;5035011;28;20506;-59
2021/10/21 09:24:39;;;;;;;2.17;0.80;;;;;;;;;;5034708;28;20418;-59
2021/10/21 09:27:08;;;;;;;1.70;1.00;;;;;;;;;;5034682;28;20427;-59
2021/10/21 09:29:36;;;;;;;1.55;0.88;;;;;;;;;;5034529;28;20476;-59
2021/10/21 09:32:05;;;;;;;2.25;1.00;;;;;;;;;;5035861;28;20198;-59
2021/10/21 09:34:34;;;;;;;1.23;0.60;;;;;;;;;;5034604;28;20903;-59
2021/10/21 09:37:05;;;;;;;1.33;0.70;;;;;;;;;;5035313;28;20741;-59
2021/10/21 09:39:41;;;;;;;3.53;0.70;;;;;;;;;;5036229;28;20202;-59
2021/10/21 09:42:09;;;;;;;2.38;0.80;;;11.70;99.90;;;;;;5036176;28;20193;-59
2021/10/21 09:44:36;;;;;;;2.58;1.05;;;9.80;99.90;;;;;;5035364;28;20209;-60
2021/10/21 09:47:15;;;;;;;2.25;0.70;;;9.80;99.90;;;;;;5035189;28;20243;-59
2021/10/21 09:49:46;;;;;;;1.67;1.15;;;9.90;99.90;;;;;;5035368;28;20206;-60
2021/10/21 09:52:18;;;;;;;4.50;1.57;;;10.00;99.90;;;;;;5035681;28;20193;-59
2021/10/21 09:54:46;;;;;;;1.92;1.10;;;10.00;99.90;;;;;;5034064;28;20427;-61
2021/10/21 09:57:17;;;;;;;1.00;0.85;;;10.00;99.90;;;;;;5035120;28;20589;-60
2021/10/21 09:59:46;;;;;;;1.10;1.00;;;10.00;99.90;;;;;;5035166;28;20220;-59
2021/10/21 10:02:17;;;;;;;3.30;0.95;;;10.10;99.90;;;;;;5035251;28;20449;-60
2021/10/21 10:04:51;;;;;;;2.05;0.90;;;10.10;99.90;;;;;;5034482;28;20430;-60
2021/10/21 10:07:19;;;;;;;3.28;0.95;;;10.20;99.90;;;;;;5035213;28;20233;-60
2021/10/21 10:09:47;;;;;;;1.35;0.70;;;10.30;99.90;;;;;;5034689;28;20256;-59
2021/10/21 10:12:16;;;;;;;3.03;1.00;;;10.30;99.90;;;;;;5034966;28;20202;-60
2021/10/21 10:14:44;;;;;;;4.45;1.25;;;;;;;;;;5035024;28;20198;-59
2021/10/21 10:17:11;;;;;;;1.80;0.90;;;;;;;;;;5034992;28;20241;-58
2021/10/21 10:19:43;;;;;;;2.50;0.90;;;;;;;;;;5034653;28;20297;-59
2021/10/21 10:22:13;;;;;;;1.48;1.10;;;;;;;;;;5034722;28;20190;-58
2021/10/21 10:24:40;;;;;;;2.75;1.15;;;;;;;;;;5034838;28;20198;-59
2021/10/21 10:27:19;;;;;;;3.42;1.33;;;;;;;;;;5034769;28;20260;-60
2021/10/21 10:29:48;;;;;;;2.05;1.30;;;;;;;;;;5034649;28;20205;-60
2021/10/21 10:32:34;;;;;;;3.10;1.55;;;;;;;;;;5034655;28;20209;-59
2021/10/21 10:35:03;;;;;;;2.25;1.50;;;;;;;;;;5034694;28;20212;-60
2021/10/21 10:37:43;;;;;;;2.35;1.45;;;10.30;99.90;;;;;;5034738;28;20209;-59
2021/10/21 10:40:12;;;;;;;2.67;1.35;;;10.20;99.90;;;;;;5034395;28;20197;-59
2021/10/21 10:43:01;;;;;;;5.22;2.33;;;10.30;99.90;;;;;;5034736;28;20225;-59
2021/10/21 10:45:55;;;;;;;4.55;2.03;;;10.50;99.90;;;;;;5033985;28;20597;-59
2021/10/21 10:49:02;;;;;;;4.40;1.80;;;10.80;99.90;;;;;;5034183;28;20182;-59
2021/10/21 10:51:57;;;;;;;4.68;1.80;;;11.10;99.90;;;;;;5034465;28;20276;-59
2021/10/21 10:55:01;;;;;;;4.27;1.83;;;11.30;99.90;;;;;;4999333;28;20202;-60
2021/10/21 10:57:57;;;;;;;3.88;1.60;;;11.50;99.90;;;;;;5033876;28;20507;-60
2021/10/21 11:00:48;;;;;;;6.97;1.93;;;11.70;99.90;;;;;;5033888;28;20198;-60
2021/10/21 11:03:30;;;;;;;9.70;1.73;;;11.80;99.90;;;;;;5034082;28;20893;-60
2021/10/21 11:05:59;;;;;;;3.73;1.60;;;12.00;99.90;;;;;;5033894;28;20519;-60
2021/10/21 11:09:03;;;;;;;6.07;1.73;;;12.10;99.90;;;;;;5033937;28;20481;-60
2021/10/21 11:11:44;;;;;;;5.63;1.70;;;12.10;99.90;;;;;;5033841;28;20466;-59
2021/10/21 11:14:13;;;;;;;2.10;1.30;;;12.00;99.90;;;;;;5034848;28;20794;-59
2021/10/21 11:16:45;;;;;;;6.67;2.17;;;12.00;99.90;;;;;;5033089;28;20857;-60
2021/10/21 11:19:13;;;;;;;8.73;1.83;;;11.90;99.90;;;;;;5033355;28;20436;-59
2021/10/21 11:21:53;;;;;;;3.83;2.37;;;11.90;99.90;;;;;;5033101;28;20942;-59
2021/10/21 11:25:03;;;;;;;7.63;1.70;;;11.70;99.90;;;;;;5033332;28;20449;-61
2021/10/21 11:27:35;;;;;;;2.30;1.60;;;11.60;99.90;;;;;;5033163;28;20441;-60
2021/10/21 11:30:08;;;;;;;6.90;1.70;;;11.60;99.90;;;;;;5033127;28;20574;-60
2021/10/21 11:32:37;;;;;;;3.70;1.47;;;11.70;99.90;;;;;;5033310;28;20501;-61
2021/10/21 11:35:10;;;;;;;3.80;1.83;;;11.80;99.90;;;;;;5033348;28;20459;-60
2021/10/21 11:37:39;;;;;;;5.37;1.73;;;11.90;99.90;;;;;;5033170;28;20550;-60
2021/10/21 11:40:10;;;;;;;3.80;1.77;;;12.00;99.90;;;;;;5033122;28;20465;-60
2021/10/21 11:42:39;;;;;;;4.70;1.70;;;12.00;99.90;;;;;;5032900;28;20450;-61
2021/10/21 11:45:09;;;;;;;5.60;1.80;;;12.10;99.50;;;;;;5033274;28;20449;-60
2021/10/21 11:47:37;;;;;;;3.97;1.87;;;12.10;97.90;;;;;;5032873;28;20478;-60
2021/10/21 11:50:06;;;;;;;5.93;2.00;;;12.10;97.70;;;;;;5031692;28;20936;-60
2021/10/21 11:52:37;;;;;;;4.97;1.93;;;12.30;97.50;;;;;;5033535;28;20439;-60
2021/10/21 11:55:06;;;;;;;6.13;1.50;;;12.50;97.00;;;;;;5035529;28;20443;-61
2021/10/21 11:57:34;;;;;;;4.20;1.40;;;12.60;96.40;;;;;;5033795;28;20986;-60
2021/10/21 12:00:17;;;;;;;4.33;1.40;;;12.70;96.00;;;;;;5033348;28;20455;-61
2021/10/21 12:02:44;;;;;;;4.40;1.37;;;12.80;95.20;;;;;;5033335;28;20433;-60
2021/10/21 12:05:11;;;;;;;3.30;1.40;;;12.90;94.90;;;;;;5033328;28;20812;-61
2021/10/21 12:07:38;;;;;;;6.73;1.60;;;13.10;93.90;;;;;;5032799;28;20444;-60
2021/10/21 12:10:06;;;;;;;3.43;1.30;;;13.20;93.00;;;;;;5032635;28;20480;-60
2021/10/21 12:12:40;;;;;;;2.83;1.40;;;13.30;92.60;;;;;;5033187;28;20450;-60
2021/10/21 12:15:11;;;;;;;5.37;1.53;;;13.30;91.90;;;;;;5033278;28;20447;-59
2021/10/21 12:17:38;;;;;;;3.50;1.97;;;13.30;91.80;;;;;;5047595;22;20496;-63
2021/10/21 12:20:07;;;;;;;4.43;2.00;;;13.40;91.90;;;;;;5032939;28;20439;-63
2021/10/21 12:22:37;;;;;;;7.17;2.00;;;13.50;92.00;;;;;;5032996;28;20800;-63
2021/10/21 12:25:07;;;;;;;7.77;1.50;;;13.50;91.50;;;;;;5033065;28;20441;-63
2021/10/21 12:27:34;;;;;;;10.23;1.80;;;13.40;91.00;;;;;;5032575;28;20532;-63
2021/10/21 12:30:02;;;;;;;3.30;1.50;;;13.30;90.70;;;;;;5035558;28;20991;-63
2021/10/21 12:32:31;;;;;;;5.90;1.93;;;13.20;90.60;;;;;;5036463;28;20527;-63
2021/10/21 12:35:06;;;;;;;1.73;1.13;;;13.10;90.50;;;;;;5036413;28;20456;-63
2021/10/21 12:37:40;;;;;;;7.30;1.23;;;13.10;90.80;;;;;;5036293;28;20476;-63
2021/10/21 12:40:13;;;;;;;3.57;1.53;;;13.00;90.70;;;;;;5036502;28;20451;-63
2021/10/21 12:42:40;;;;;;;2.30;0.90;;;12.90;90.80;;;;;;5036463;28;20483;-63
2021/10/21 12:45:08;;;;;;;2.20;0.93;;;12.90;90.50;;;;;;5036211;28;20452;-62
2021/10/21 12:47:38;;;;;;;1.70;0.97;;;12.80;90.50;;;;;;5036048;28;20501;-62
2021/10/21 12:50:07;;;;;;;1.57;0.80;;;12.70;90.90;;;;;;5036201;28;21000;-63
2021/10/21 12:52:36;;;;;;;1.73;1.00;;;12.60;91.10;;;;;;5036572;28;20446;-62
2021/10/21 12:55:12;;;;;;;1.37;0.80;;;12.50;91.80;;;;;;5036319;28;20462;-61
2021/10/21 12:57:46;;;;;;;1.43;0.87;;;12.40;92.50;;;;;;5036982;28;20475;-62
2021/10/21 13:00:14;;;;;;;1.60;0.70;;;12.20;93.30;;;;;;5036260;28;20435;-62
2021/10/21 13:02:43;;;;;;;3.97;1.73;;;;;;;;;;5036352;28;20883;-62
2021/10/21 13:05:22;;;;;;;1.33;0.83;;;;;;;;;;5035857;28;20923;-62
2021/10/21 13:07:49;;;;;;;2.60;1.10;;;;;;;;;;5036127;28;20478;-62
2021/10/21 13:10:17;;;;;;;3.80;1.07;;;;;;;;;;5035815;28;20473;-62
2021/10/21 13:12:44;;;;;;;1.60;1.30;;;;;;;;;;5035841;28;20825;-63
2021/10/21 13:15:12;;;;;;;1.73;1.30;;;;;;;;;;5036030;28;20448;-62
2021/10/21 13:17:39;;;;;;;2.50;1.20;;;;;;;;;;5036073;28;20849;-62
2021/10/21 13:20:09;;;;;;;2.83;1.40;;;;;;;;;;5035664;28;20448;-63
2021/10/21 13:22:36;;;;;;;2.20;1.10;;;;;;;;;;5035466;28;20461;-62
2021/10/21 13:25:05;;;;;;;1.93;1.27;;;;;;;;;;5035710;28;20446;-62
2021/10/21 13:27:32;;;;;;;3.40;1.23;;;;;;;;;;5035520;28;20477;-63